Sao Joao d'Alianca, Brazil
Current Conditions -  °F | °C
As of 10:13 AM on Thursday 18 Dec 2014 (Local Time) from SBBR Reporting Station
Broken Clouds Broken Clouds  
Wind Chill: 73°   Ceiling: 900
Heat Index: 73°   Visibility: 6mi
Dew Point: 68°   Wind: 6mph
Humidity: 83%   Direction: 350°N
Pressure: 30.03"   Gusts: NA
Location:  14.71°S, 47.52°W
Report Text: SBBR 181213Z 35005KT 9999 BKN009 SCT030 BKN100 23/20 Q1017
Loading
Personal Weather Stations






























Interactive Weather Map New forecast layout! Learn more

10-Day Weather Forecast

Advertisements
Track Severe Weather on mobile